createdAt,value
2022-07-29T00:06:40.428Z,33.10
2022-07-29T00:21:40.854Z,32.80
2022-07-29T00:36:41.260Z,32.60
2022-07-29T00:51:42.162Z,32.90
2022-07-29T01:06:42.224Z,32.30
2022-07-29T01:21:43.067Z,32.50
2022-07-29T01:36:42.580Z,32.20
2022-07-29T01:51:42.935Z,31.90
2022-07-29T02:06:43.145Z,32.10
2022-07-29T02:21:43.187Z,32.10
2022-07-29T02:36:49.420Z,31.90
2022-07-29T02:51:45.533Z,32.10
2022-07-29T03:06:44.405Z,31.90
2022-07-29T03:21:44.546Z,32.00
2022-07-29T03:36:45.109Z,31.80
2022-07-29T03:51:49.731Z,32.00
2022-07-29T04:06:48.618Z,31.80
2022-07-29T04:21:45.824Z,31.50
2022-07-29T04:36:46.215Z,31.30
2022-07-29T04:51:46.565Z,31.80
2022-07-29T05:06:46.832Z,31.40
2022-07-29T05:21:47.347Z,31.20
2022-07-29T05:36:47.521Z,31.50
2022-07-29T05:51:48.977Z,32.00
2022-07-29T06:06:49.449Z,31.90
2022-07-29T06:21:48.671Z,32.60
2022-07-29T06:36:49.447Z,32.70
2022-07-29T06:51:49.534Z,33.10
2022-07-29T07:06:49.313Z,33.50
2022-07-29T07:21:49.602Z,33.90
2022-07-29T07:36:49.903Z,34.50
2022-07-29T07:51:51.596Z,34.90
2022-07-29T08:06:50.771Z,35.20
2022-07-29T08:21:53.781Z,35.90
2022-07-29T08:36:50.672Z,36.10
2022-07-29T08:51:51.670Z,36.20
2022-07-29T09:06:51.330Z,36.20
2022-07-29T09:21:52.090Z,36.50
2022-07-29T09:36:53.284Z,36.50
2022-07-29T09:51:52.900Z,36.80
2022-07-29T10:06:53.096Z,37.00
2022-07-29T10:21:58.790Z,36.80
2022-07-29T10:36:55.809Z,37.10
2022-07-29T10:51:55.262Z,37.50
2022-07-29T11:06:59.010Z,38.40
2022-07-29T11:21:59.211Z,39.30
2022-07-29T11:36:58.651Z,39.40
2022-07-29T11:51:56.772Z,40.00
2022-07-29T12:06:55.748Z,41.10
2022-07-29T12:22:02.262Z,42.60
2022-07-29T12:36:56.413Z,43.10
2022-07-29T12:51:57.514Z,42.70
2022-07-29T13:06:57.204Z,41.90
2022-07-29T13:21:57.926Z,41.10
2022-07-29T13:36:57.690Z,41.10
2022-07-29T13:51:58.799Z,40.90
2022-07-29T14:06:58.190Z,40.70
2022-07-29T14:22:00.161Z,40.40
2022-07-29T14:36:58.807Z,40.20
2022-07-29T14:52:00.512Z,40.10
2022-07-29T15:07:01.130Z,40.60
2022-07-29T15:22:01.800Z,40.70
2022-07-29T15:37:00.445Z,41.60
2022-07-29T15:52:00.713Z,43.70
2022-07-29T16:07:01.988Z,44.40
2022-07-29T16:22:05.635Z,44.10
2022-07-29T16:37:02.330Z,43.50
2022-07-29T16:52:03.494Z,43.20
2022-07-29T17:07:02.332Z,42.20
2022-07-29T17:22:19.372Z,42.00
2022-07-29T17:37:02.923Z,41.50
2022-07-29T17:52:03.178Z,40.70
2022-07-29T18:07:03.313Z,40.50
2022-07-29T18:22:06.005Z,39.90
2022-07-29T18:37:06.533Z,39.30
2022-07-29T18:52:04.189Z,38.70
2022-07-29T19:07:04.897Z,38.00
2022-07-29T19:22:05.033Z,37.50
2022-07-29T19:37:08.029Z,37.00
2022-07-29T19:52:05.647Z,36.70
2022-07-29T20:07:05.369Z,36.50
2022-07-29T20:22:06.246Z,36.20
2022-07-29T20:37:06.875Z,36.00
2022-07-29T20:52:08.115Z,35.50
2022-07-29T21:07:07.271Z,35.20
2022-07-29T21:22:07.679Z,35.30
2022-07-29T21:37:09.591Z,34.90
2022-07-29T21:52:09.709Z,34.80
2022-07-29T22:22:21.975Z,33.90
2022-07-29T22:37:22.190Z,33.90
2022-07-29T22:52:22.876Z,34.20
2022-07-29T23:07:22.868Z,33.50
2022-07-29T23:22:23.099Z,33.80
2022-07-29T23:37:27.546Z,33.90
2022-07-29T23:52:24.136Z,33.70
